Aviation Digital Data Service (ADDS)

Output produced by METARs form (1138 UTC 17 June 2019)
found at http://www.aviationweather.gov/metar/data/
 
Forecast for: YPXM (CHRISTMAS ISL (P, AU)
Text: TAF YPXM 171107Z 1712/1812 10014KT 9999 SCT015
Forecast period: 1200 UTC 17 June 2019 to 1200 UTC 18 June 2019
Forecast type: FROM: standard forecast or significant change
Winds: from the E (100 degrees) at 16 MPH (14 knots; 7.2 m/s)
Visibility: 6 or more miles 10+ km)
Ceiling: at least 12,000 feet AGL
Clouds: scattered clouds at 1500 feet AGL
Weather: no significant weather forecast for this period
Text: TEMPO 1712/1802 9999 NSW BKN012
Forecast period: 1200 UTC 17 June 2019 to 0200 UTC 18 June 2019
Forecast type: TEMPORARY: The following changes expected for less than half the time period
Visibility: 6 or more miles 10+ km)
Ceiling: 1200 feet AGL
Clouds: broken clouds at 1200 feet AGL
Weather: NSW  (no significant weather)